createdAt,value
2022-11-23T00:00:48.465Z,16.38
2022-11-23T00:03:17.744Z,15.90
2022-11-23T00:05:45.353Z,19.45
2022-11-23T00:08:12.966Z,19.17
2022-11-23T00:10:40.650Z,17.75
2022-11-23T00:13:08.546Z,18.83
2022-11-23T00:15:36.487Z,16.70
2022-11-23T00:18:04.166Z,14.23
2022-11-23T00:20:33.312Z,16.87
2022-11-23T00:23:01.093Z,17.88
2022-11-23T00:25:29.512Z,16.02
2022-11-23T00:27:57.463Z,18.15
2022-11-23T00:30:25.057Z,17.30
2022-11-23T00:32:52.751Z,15.40
2022-11-23T00:35:20.529Z,17.23
2022-11-23T00:37:49.496Z,17.02
2022-11-23T00:40:17.690Z,17.92
2022-11-23T00:42:45.350Z,16.55
2022-11-23T00:45:13.048Z,15.43
2022-11-23T00:47:40.940Z,14.02
2022-11-23T00:50:09.406Z,15.82
2022-11-23T00:52:37.113Z,15.27
2022-11-23T00:55:07.216Z,14.10
2022-11-23T00:57:35.118Z,15.00
2022-11-23T01:00:03.058Z,14.45
2022-11-23T01:02:30.870Z,15.00
2022-11-23T01:04:58.491Z,14.60
2022-11-23T01:07:26.257Z,14.32
2022-11-23T01:09:54.248Z,14.73
2022-11-23T01:12:23.264Z,14.77
2022-11-23T01:14:53.317Z,13.60
2022-11-23T01:17:21.094Z,13.25
2022-11-23T01:19:48.886Z,13.18
2022-11-23T01:22:16.586Z,12.67
2022-11-23T01:24:44.949Z,14.35
2022-11-23T01:27:12.754Z,13.80
2022-11-23T01:29:41.927Z,15.38
2022-11-23T01:32:09.520Z,13.32
2022-11-23T01:34:37.380Z,14.40
2022-11-23T01:37:05.038Z,16.65
2022-11-23T01:39:32.875Z,13.23
2022-11-23T01:42:01.024Z,15.27
2022-11-23T01:44:30.603Z,15.05
2022-11-23T01:47:01.169Z,13.80
2022-11-23T01:49:33.389Z,16.60
2022-11-23T01:52:05.043Z,15.43
2022-11-23T01:54:37.254Z,14.65
2022-11-23T01:57:10.883Z,15.15
2022-11-23T01:59:39.193Z,13.83
2022-11-23T02:02:08.750Z,15.70
2022-11-23T02:04:41.479Z,15.30
2022-11-23T02:07:10.521Z,14.75
2022-11-23T02:09:38.884Z,13.82
2022-11-23T02:12:11.819Z,13.43
2022-11-23T02:14:39.875Z,12.70
2022-11-23T02:17:09.170Z,14.63
2022-11-23T02:19:47.691Z,14.63
2022-11-23T02:22:23.277Z,13.73
2022-11-23T02:24:55.641Z,13.93
2022-11-23T02:27:25.027Z,13.55
2022-11-23T02:29:53.499Z,13.68
2022-11-23T02:32:24.199Z,14.38
2022-11-23T02:34:51.872Z,13.57
2022-11-23T02:37:19.783Z,14.67
2022-11-23T02:39:50.603Z,14.13
2022-11-23T02:42:18.725Z,14.57
2022-11-23T02:44:54.956Z,13.88
2022-11-23T02:47:22.997Z,12.57
2022-11-23T02:49:50.934Z,14.03
2022-11-23T02:52:19.349Z,14.48
2022-11-23T02:54:47.218Z,13.52
2022-11-23T02:57:15.198Z,13.38
2022-11-23T02:59:42.794Z,15.02
2022-11-23T03:02:11.922Z,15.17
2022-11-23T03:04:39.679Z,13.65
2022-11-23T03:07:07.506Z,13.45
2022-11-23T03:09:35.249Z,13.45
2022-11-23T03:12:02.973Z,15.18
2022-11-23T03:14:30.857Z,15.27
2022-11-23T03:16:58.470Z,12.75
2022-11-23T03:19:27.505Z,13.70
2022-11-23T03:21:55.276Z,13.57
2022-11-23T03:24:22.857Z,12.23
2022-11-23T03:26:50.719Z,16.70
2022-11-23T03:29:18.439Z,12.18
2022-11-23T03:31:46.097Z,13.48
2022-11-23T03:34:14.086Z,12.63
2022-11-23T03:36:43.076Z,14.05
2022-11-23T03:39:10.878Z,12.57
2022-11-23T03:41:39.237Z,14.75
2022-11-23T03:44:06.851Z,13.93
2022-11-23T03:46:34.679Z,11.85
2022-11-23T03:49:03.544Z,12.68
2022-11-23T03:51:31.245Z,12.07
2022-11-23T03:54:00.240Z,12.52
2022-11-23T03:56:28.139Z,12.60
2022-11-23T03:58:55.763Z,11.93
2022-11-23T04:01:23.460Z,13.15
2022-11-23T04:03:51.325Z,13.00
2022-11-23T04:06:19.094Z,11.95
2022-11-23T04:08:46.876Z,13.65
2022-11-23T04:11:16.053Z,13.80
2022-11-23T04:13:43.809Z,11.88
2022-11-23T04:16:11.419Z,12.90
2022-11-23T04:18:39.250Z,11.60
2022-11-23T04:21:07.484Z,11.60
2022-11-23T04:23:35.371Z,10.23
2022-11-23T04:26:03.100Z,11.80
2022-11-23T04:28:32.386Z,11.53
2022-11-23T04:31:00.044Z,11.40
2022-11-23T04:33:27.886Z,11.48
2022-11-23T04:35:55.502Z,13.15
2022-11-23T04:38:23.186Z,11.40
2022-11-23T04:40:51.032Z,10.03
2022-11-23T04:43:18.650Z,10.25
2022-11-23T04:45:47.813Z,11.20
2022-11-23T04:48:15.669Z,11.27
2022-11-23T04:50:46.610Z,10.13
2022-11-23T04:53:14.612Z,11.17
2022-11-23T04:55:42.497Z,9.60
2022-11-23T04:58:10.203Z,13.48
2022-11-23T05:00:37.828Z,12.40
2022-11-23T05:03:07.264Z,10.90
2022-11-23T05:05:35.044Z,12.53
2022-11-23T05:08:02.710Z,11.43
2022-11-23T05:10:30.372Z,10.45
2022-11-23T05:12:58.197Z,11.30
2022-11-23T05:15:27.133Z,10.82
2022-11-23T05:17:59.010Z,10.70
2022-11-23T05:20:28.440Z,12.70
2022-11-23T05:22:56.288Z,11.13
2022-11-23T05:25:23.941Z,11.48
2022-11-23T05:27:51.601Z,12.65
2022-11-23T05:30:20.029Z,11.20
2022-11-23T05:32:47.915Z,12.85
2022-11-23T05:35:15.995Z,13.00
2022-11-23T05:37:45.514Z,13.57
2022-11-23T05:40:14.229Z,15.02
2022-11-23T05:42:41.836Z,13.33
2022-11-23T05:45:11.894Z,15.80
2022-11-23T05:47:40.535Z,15.15
2022-11-23T05:50:09.534Z,13.88
2022-11-23T05:52:37.246Z,15.27
2022-11-23T05:55:06.638Z,16.93
2022-11-23T05:57:34.397Z,14.75
2022-11-23T06:00:02.327Z,13.98
2022-11-23T06:02:30.258Z,14.15
2022-11-23T06:04:57.946Z,15.45
2022-11-23T06:07:25.945Z,15.70
2022-11-23T06:09:53.537Z,15.15
2022-11-23T06:12:22.664Z,16.42
2022-11-23T06:14:50.456Z,16.73
2022-11-23T06:17:18.098Z,18.58
2022-11-23T06:19:45.908Z,17.80
2022-11-23T06:22:13.726Z,19.20
2022-11-23T06:24:41.503Z,17.48
2022-11-23T06:27:10.522Z,15.70
2022-11-23T06:29:42.219Z,15.68
2022-11-23T06:32:09.836Z,18.40
2022-11-23T06:34:37.528Z,18.05
2022-11-23T06:37:05.699Z,16.83
2022-11-23T06:39:33.631Z,19.48
2022-11-23T06:42:16.884Z,19.00
2022-11-23T06:44:50.582Z,16.97
2022-11-23T06:47:21.919Z,20.13
2022-11-23T06:49:53.427Z,17.80
2022-11-23T06:52:21.372Z,16.52
2022-11-23T06:54:49.047Z,16.52
2022-11-23T06:57:17.054Z,17.17
2022-11-23T06:59:45.573Z,18.05
2022-11-23T07:02:14.634Z,18.00
2022-11-23T07:04:42.380Z,17.52
2022-11-23T07:07:10.312Z,19.30
2022-11-23T07:09:38.322Z,16.23
2022-11-23T07:12:06.557Z,19.50
2022-11-23T07:14:34.355Z,15.35
2022-11-23T07:17:02.024Z,18.23
2022-11-23T07:19:31.420Z,19.15
2022-11-23T07:21:59.892Z,16.67
2022-11-23T07:24:28.565Z,14.85
2022-11-23T07:26:58.023Z,23.25
2022-11-23T07:29:26.535Z,21.00
2022-11-23T07:31:54.171Z,15.45
2022-11-23T07:34:22.242Z,17.07
2022-11-23T07:36:51.372Z,18.95
2022-11-23T07:39:19.138Z,17.40
2022-11-23T07:41:51.486Z,19.00
2022-11-23T07:44:19.317Z,17.08
2022-11-23T07:46:46.950Z,18.13
2022-11-23T07:49:15.002Z,17.83
2022-11-23T07:51:42.635Z,15.80
2022-11-23T07:54:11.923Z,18.05
2022-11-23T07:56:39.646Z,18.38
2022-11-23T07:59:07.430Z,15.50
2022-11-23T08:01:35.126Z,14.10
2022-11-23T08:04:03.171Z,18.58
2022-11-23T08:06:31.836Z,16.52
2022-11-23T08:08:59.605Z,15.90
2022-11-23T08:11:28.794Z,14.50
2022-11-23T08:13:56.903Z,18.17
2022-11-23T08:16:24.741Z,16.60
2022-11-23T08:18:52.795Z,16.27
2022-11-23T08:21:20.561Z,13.73
2022-11-23T08:23:48.345Z,17.23
2022-11-23T08:26:16.177Z,17.52
2022-11-23T08:28:45.498Z,15.40
2022-11-23T08:31:14.982Z,14.05
2022-11-23T08:33:43.781Z,16.23
2022-11-23T08:36:12.457Z,16.67
2022-11-23T08:38:40.111Z,15.15
2022-11-23T08:41:08.508Z,13.60
2022-11-23T08:43:36.603Z,15.75
2022-11-23T08:46:10.879Z,16.25
2022-11-23T08:48:39.096Z,14.30
2022-11-23T08:51:07.248Z,14.88
2022-11-23T08:53:35.037Z,16.30
2022-11-23T08:56:03.401Z,14.98
2022-11-23T08:58:31.402Z,14.57
2022-11-23T09:00:59.279Z,15.80
2022-11-23T09:03:28.429Z,16.50
2022-11-23T09:06:00.720Z,16.42
2022-11-23T09:08:29.942Z,14.13
2022-11-23T09:11:03.733Z,22.27
2022-11-23T09:13:31.632Z,16.73
2022-11-23T09:16:00.730Z,16.10
2022-11-23T09:18:31.762Z,15.20
2022-11-23T09:20:59.730Z,15.35
2022-11-23T09:23:28.330Z,20.42
2022-11-23T09:25:58.530Z,16.57
2022-11-23T09:28:27.857Z,13.48
2022-11-23T09:30:57.027Z,13.95
2022-11-23T09:33:26.328Z,12.80
2022-11-23T09:36:01.362Z,13.40
2022-11-23T09:38:54.674Z,12.00
2022-11-23T09:41:39.583Z,13.98
2022-11-23T09:44:14.243Z,13.18
2022-11-23T09:46:56.585Z,13.50
2022-11-23T09:49:33.000Z,10.75
2022-11-23T09:52:02.235Z,13.53
2022-11-23T09:54:33.759Z,13.95
2022-11-23T09:57:04.301Z,15.95
2022-11-23T09:59:40.843Z,15.70
2022-11-23T10:02:21.950Z,19.20
2022-11-23T10:04:49.951Z,17.70
2022-11-23T10:07:35.432Z,16.88
2022-11-23T10:10:15.104Z,17.52
2022-11-23T10:12:52.738Z,16.42
2022-11-23T10:15:25.734Z,16.08
2022-11-23T10:18:10.750Z,13.20
2022-11-23T10:20:55.423Z,15.98
2022-11-23T10:23:38.583Z,14.48
2022-11-23T10:26:11.309Z,13.60
2022-11-23T10:28:39.238Z,12.98
2022-11-23T10:31:14.616Z,12.87
2022-11-23T10:33:51.136Z,12.52
2022-11-23T10:36:19.733Z,12.60
2022-11-23T10:38:52.604Z,16.95
2022-11-23T10:41:20.512Z,13.07
2022-11-23T10:43:53.365Z,12.67
2022-11-23T10:46:26.856Z,13.30
2022-11-23T10:48:55.946Z,12.95
2022-11-23T10:51:31.032Z,12.23
2022-11-23T10:54:05.510Z,11.43
2022-11-23T10:56:35.086Z,13.23
2022-11-23T10:59:03.044Z,12.00
2022-11-23T11:01:30.951Z,14.23
2022-11-23T11:04:05.291Z,13.23
2022-11-23T11:06:36.353Z,11.45
2022-11-23T11:09:10.922Z,10.07
2022-11-23T11:11:47.978Z,15.07
2022-11-23T11:14:18.738Z,11.88
2022-11-23T11:16:49.611Z,11.95
2022-11-23T11:19:28.559Z,14.10
2022-11-23T11:21:57.651Z,14.00
2022-11-23T11:24:33.418Z,10.52
2022-11-23T11:27:04.138Z,9.63
2022-11-23T11:29:38.947Z,10.95
2022-11-23T11:32:12.953Z,11.80
2022-11-23T11:34:46.784Z,13.80
2022-11-23T11:37:24.125Z,11.68
2022-11-23T11:39:56.956Z,12.30
2022-11-23T11:42:33.535Z,12.23
2022-11-23T11:45:04.395Z,11.35
2022-11-23T11:47:37.772Z,13.37
2022-11-23T11:50:20.338Z,9.88
2022-11-23T11:52:52.925Z,10.10
2022-11-23T11:55:25.942Z,11.23
2022-11-23T11:58:09.475Z,13.30
2022-11-23T12:00:44.820Z,13.57
2022-11-23T12:03:22.361Z,12.82
2022-11-23T12:05:52.853Z,11.13
2022-11-23T12:08:27.847Z,11.43
2022-11-23T12:11:02.250Z,12.90
2022-11-23T12:13:33.497Z,11.67
2022-11-23T12:16:14.376Z,11.65
2022-11-23T12:18:58.568Z,13.02
2022-11-23T12:21:51.389Z,12.13
2022-11-23T12:24:30.350Z,12.45
2022-11-23T12:27:08.962Z,14.97
2022-11-23T12:29:51.215Z,13.32
2022-11-23T12:32:29.880Z,10.15
2022-11-23T12:35:31.920Z,10.43
2022-11-23T12:38:12.271Z,13.80
2022-11-23T12:40:55.112Z,14.77
2022-11-23T12:43:36.653Z,23.60
2022-11-23T12:46:13.759Z,15.05
2022-11-23T12:49:05.475Z,14.20
2022-11-23T12:51:40.511Z,16.08
2022-11-23T12:54:25.624Z,13.67
2022-11-23T12:57:05.419Z,13.85
2022-11-23T12:59:43.243Z,14.30
2022-11-23T13:02:25.606Z,15.57
2022-11-23T13:05:19.835Z,13.50
2022-11-23T13:08:18.721Z,13.13
2022-11-23T13:10:58.804Z,14.27
2022-11-23T13:13:49.313Z,12.07
2022-11-23T13:16:36.369Z,12.57
2022-11-23T13:19:21.573Z,11.40
2022-11-23T13:21:49.751Z,13.80
2022-11-23T13:24:32.361Z,15.05
2022-11-23T13:27:45.996Z,11.27
2022-11-23T13:31:13.294Z,13.65
2022-11-23T13:33:37.893Z,10.10
2022-11-23T13:36:11.590Z,12.73
2022-11-23T13:38:44.698Z,10.65
2022-11-23T13:41:58.340Z,11.75
2022-11-23T13:44:30.049Z,10.30
2022-11-23T13:47:07.669Z,13.50
2022-11-23T13:49:47.272Z,12.33
2022-11-23T13:52:27.939Z,12.15
2022-11-23T13:54:58.647Z,11.30
2022-11-23T13:57:27.773Z,11.43
2022-11-23T13:59:55.676Z,12.18
2022-11-23T14:02:29.135Z,13.77
2022-11-23T14:05:53.681Z,13.35
2022-11-23T14:08:22.421Z,28.35
2022-11-23T14:10:52.232Z,31.35
2022-11-23T14:13:23.874Z,43.72
2022-11-23T14:15:57.463Z,31.33
2022-11-23T14:19:05.022Z,27.08
2022-11-23T14:21:44.932Z,18.75
2022-11-23T14:24:38.456Z,14.82
2022-11-23T14:27:46.280Z,14.63
2022-11-23T14:30:26.295Z,12.53
2022-11-23T14:33:04.591Z,13.60
2022-11-23T14:35:39.866Z,11.43
2022-11-23T14:38:42.024Z,14.93
2022-11-23T14:41:15.177Z,13.80
2022-11-23T14:43:44.050Z,16.10
2022-11-23T14:46:17.680Z,16.42
2022-11-23T14:48:45.900Z,15.02
2022-11-23T14:51:16.806Z,16.73
2022-11-23T14:53:48.938Z,13.63
2022-11-23T14:56:27.044Z,16.00
2022-11-23T14:58:59.742Z,17.00
2022-11-23T15:01:28.405Z,16.80
2022-11-23T15:04:00.733Z,19.05
2022-11-23T15:06:31.907Z,14.27
2022-11-23T15:09:09.419Z,14.37
2022-11-23T15:11:41.476Z,15.70
2022-11-23T15:14:20.207Z,19.73
2022-11-23T15:16:49.595Z,23.90
2022-11-23T15:19:28.063Z,25.92
2022-11-23T15:21:56.564Z,16.47
2022-11-23T15:24:27.712Z,14.88
2022-11-23T15:27:09.298Z,15.05
2022-11-23T15:29:41.673Z,16.27
2022-11-23T15:32:38.903Z,17.05
2022-11-23T15:35:11.634Z,14.97
2022-11-23T15:37:45.977Z,19.40
2022-11-23T15:40:17.750Z,21.40
2022-11-23T15:42:47.845Z,17.85
2022-11-23T15:45:39.442Z,20.02
2022-11-23T15:48:13.063Z,24.37
2022-11-23T15:50:48.889Z,19.85
2022-11-23T15:53:16.629Z,18.83
2022-11-23T15:55:46.496Z,15.02
2022-11-23T15:58:17.990Z,15.75
2022-11-23T16:00:51.038Z,18.60
2022-11-23T16:03:28.384Z,16.60
2022-11-23T16:06:15.526Z,18.40
2022-11-23T16:08:44.603Z,25.42
2022-11-23T16:11:30.111Z,19.33
2022-11-23T16:14:18.826Z,18.40
2022-11-23T16:16:48.731Z,16.17
2022-11-23T16:19:26.920Z,19.67
2022-11-23T16:22:01.964Z,16.70
2022-11-23T16:24:31.487Z,15.18
2022-11-23T16:27:02.163Z,20.57
2022-11-23T16:29:35.025Z,24.23
2022-11-23T16:32:07.188Z,31.15
2022-11-23T16:34:35.582Z,26.90
2022-11-23T16:37:04.719Z,24.95
2022-11-23T16:39:32.327Z,22.77
2022-11-23T16:42:01.284Z,25.70
2022-11-23T16:44:31.247Z,19.40
2022-11-23T16:47:17.813Z,25.33
2022-11-23T16:49:45.662Z,25.38
2022-11-23T16:52:13.741Z,27.53
2022-11-23T16:54:41.381Z,23.60
2022-11-23T16:57:19.881Z,21.73
2022-11-23T16:59:47.707Z,21.10
2022-11-23T17:02:17.170Z,32.63
2022-11-23T17:04:45.720Z,51.27
2022-11-23T17:07:13.691Z,35.20
2022-11-23T17:09:41.515Z,25.73
2022-11-23T17:12:18.261Z,26.45
2022-11-23T17:14:48.321Z,31.50
2022-11-23T17:17:20.596Z,48.73
2022-11-23T17:19:49.913Z,27.08
2022-11-23T17:22:18.438Z,19.50
2022-11-23T17:24:46.800Z,21.88
2022-11-23T17:27:18.708Z,26.25
2022-11-23T17:29:47.464Z,21.10
2022-11-23T17:32:15.738Z,18.42
2022-11-23T17:34:43.764Z,21.23
2022-11-23T17:37:18.062Z,17.52
2022-11-23T17:39:45.675Z,22.77
2022-11-23T17:42:13.725Z,20.93
2022-11-23T17:44:43.010Z,19.25
2022-11-23T17:47:25.187Z,26.38
2022-11-23T17:49:53.201Z,21.95
2022-11-23T17:52:21.225Z,20.45
2022-11-23T17:54:48.883Z,17.73
2022-11-23T17:57:19.147Z,17.77
2022-11-23T17:59:48.122Z,16.63
2022-11-23T18:02:15.761Z,17.42
2022-11-23T18:04:44.600Z,20.05
2022-11-23T18:07:15.212Z,21.07
2022-11-23T18:09:43.356Z,17.67
2022-11-23T18:12:11.217Z,21.33
2022-11-23T18:14:39.461Z,19.88
2022-11-23T18:17:08.920Z,18.90
2022-11-23T18:19:36.515Z,15.57
2022-11-23T18:22:04.334Z,15.25
2022-11-23T18:24:31.969Z,17.83
2022-11-23T18:27:00.281Z,16.35
2022-11-23T18:29:28.235Z,16.95
2022-11-23T18:31:56.049Z,16.93
2022-11-23T18:34:25.226Z,17.88
2022-11-23T18:36:52.987Z,17.33
2022-11-23T18:39:21.730Z,22.17
2022-11-23T18:41:49.369Z,25.83
2022-11-23T18:44:17.261Z,23.67
2022-11-23T18:46:46.022Z,20.90
2022-11-23T18:49:14.140Z,18.92
2022-11-23T18:51:43.329Z,18.95
2022-11-23T18:54:11.138Z,16.38
2022-11-23T18:56:38.967Z,18.40
2022-11-23T18:59:08.016Z,17.23
2022-11-23T19:01:35.744Z,16.77
2022-11-23T19:04:03.782Z,23.08
2022-11-23T19:06:32.776Z,23.17
2022-11-23T19:09:02.937Z,21.03
2022-11-23T19:11:30.754Z,21.35
2022-11-23T19:14:01.645Z,22.42
2022-11-23T19:16:31.693Z,23.98
2022-11-23T19:19:01.193Z,20.52
2022-11-23T19:21:30.449Z,26.57
2022-11-23T19:23:59.671Z,28.75
2022-11-23T19:26:29.963Z,33.72
2022-11-23T19:28:59.610Z,26.77
2022-11-23T19:31:29.268Z,19.77
2022-11-23T19:33:58.239Z,20.27
2022-11-23T19:36:26.760Z,16.13
2022-11-23T19:38:56.268Z,18.10
2022-11-23T19:41:29.561Z,16.08
2022-11-23T19:44:01.016Z,13.93
2022-11-23T19:46:29.902Z,16.60
2022-11-23T19:48:58.554Z,12.93
2022-11-23T19:51:27.608Z,14.77
2022-11-23T19:53:57.047Z,13.02
2022-11-23T19:56:26.328Z,12.32
2022-11-23T19:58:55.798Z,15.50
2022-11-23T20:01:27.869Z,15.48
2022-11-23T20:03:57.501Z,13.05
2022-11-23T20:06:27.017Z,13.10
2022-11-23T20:08:57.087Z,14.57
2022-11-23T20:11:26.081Z,13.60
2022-11-23T20:13:54.751Z,17.48
2022-11-23T20:16:24.819Z,16.00
2022-11-23T20:18:57.269Z,14.15
2022-11-23T20:21:25.129Z,14.98
2022-11-23T20:24:01.445Z,15.20
2022-11-23T20:26:32.198Z,18.60
2022-11-23T20:29:00.135Z,18.55
2022-11-23T20:31:31.728Z,18.88
2022-11-23T20:34:00.201Z,34.88
2022-11-23T20:36:30.031Z,29.70
2022-11-23T20:38:58.664Z,36.88
2022-11-23T20:41:27.847Z,27.80
2022-11-23T20:43:57.224Z,22.83
2022-11-23T20:46:46.041Z,15.80
2022-11-23T20:49:15.630Z,16.13
2022-11-23T20:51:43.331Z,15.85
2022-11-23T20:54:11.070Z,18.05
2022-11-23T20:56:39.264Z,17.65
2022-11-23T20:59:07.397Z,19.50
2022-11-23T21:01:35.220Z,17.93
2022-11-23T21:04:03.011Z,19.23
2022-11-23T21:06:37.245Z,17.95
2022-11-23T21:09:06.801Z,17.95
2022-11-23T21:11:51.898Z,18.50
2022-11-23T21:14:21.643Z,16.70
2022-11-23T21:16:53.426Z,18.40
2022-11-23T21:19:23.458Z,16.17
2022-11-23T21:21:53.070Z,16.25
2022-11-23T21:24:22.114Z,17.75
2022-11-23T21:26:50.115Z,15.93
2022-11-23T21:29:18.785Z,14.88
2022-11-23T21:31:49.135Z,17.33
2022-11-23T21:34:19.615Z,16.65
2022-11-23T21:36:48.673Z,18.13
2022-11-23T21:39:18.634Z,17.00
2022-11-23T21:41:47.438Z,18.38
2022-11-23T21:44:15.433Z,15.70
2022-11-23T21:46:43.898Z,18.15
2022-11-23T21:49:11.808Z,20.52
2022-11-23T21:51:39.924Z,18.13
2022-11-23T21:54:09.842Z,17.70
2022-11-23T21:56:38.820Z,15.10
2022-11-23T21:59:07.205Z,19.17
2022-11-23T22:01:37.481Z,18.67
2022-11-23T22:04:08.713Z,16.17
2022-11-23T22:06:36.899Z,16.95
2022-11-23T22:09:06.722Z,18.88
2022-11-23T22:11:37.099Z,18.67
2022-11-23T22:14:08.213Z,15.82
2022-11-23T22:16:37.489Z,17.60
2022-11-23T22:19:05.852Z,20.55
2022-11-23T22:21:35.945Z,17.33
2022-11-23T22:24:04.925Z,17.60
2022-11-23T22:26:34.127Z,18.13
2022-11-23T22:29:02.794Z,20.33
2022-11-23T22:31:33.365Z,20.83
2022-11-23T22:34:01.509Z,17.77
2022-11-23T22:36:30.606Z,20.17
2022-11-23T22:39:02.154Z,20.15
2022-11-23T22:41:33.500Z,18.70
2022-11-23T22:44:01.639Z,16.00
2022-11-23T22:46:29.944Z,13.57
2022-11-23T22:49:00.374Z,14.93
2022-11-23T22:51:29.857Z,18.58
2022-11-23T22:53:58.788Z,17.63
2022-11-23T22:56:28.075Z,17.15
2022-11-23T22:58:56.057Z,16.58
2022-11-23T23:01:26.417Z,15.30
2022-11-23T23:03:56.109Z,10.20
2022-11-23T23:06:27.040Z,8.17
2022-11-23T23:08:57.473Z,8.77
2022-11-23T23:11:26.075Z,7.78
2022-11-23T23:13:54.113Z,9.15
2022-11-23T23:16:23.047Z,7.43
2022-11-23T23:18:51.395Z,6.30
2022-11-23T23:21:20.773Z,6.85
2022-11-23T23:23:52.822Z,7.25
2022-11-23T23:26:23.240Z,6.00
2022-11-23T23:28:55.240Z,6.13
2022-11-23T23:31:23.332Z,6.90
2022-11-23T23:33:51.067Z,7.53
2022-11-23T23:36:21.050Z,6.72
2022-11-23T23:38:50.885Z,6.95
2022-11-23T23:41:18.700Z,6.47
2022-11-23T23:43:48.304Z,7.27
2022-11-23T23:46:16.544Z,6.07
2022-11-23T23:48:44.442Z,5.80
2022-11-23T23:51:13.887Z,5.03
2022-11-23T23:53:41.889Z,5.43
2022-11-23T23:56:14.906Z,6.77
2022-11-23T23:58:42.668Z,5.10
